Time;durP1;ratioP1;P1;durP2;ratioP2;P2;SDS_P1;SDS_P2;PMS_P1;PMS_P2;Temp;Humidity;BMP_temperature;BMP_pressure;BME280_temperature;BME280_humidity;BME280_pressure;Samples;Min_cycle;Max_cycle;Signal;HPM_P1;HPM_P2
2024/04/15 00:01:35;;;;;;;8.35;7.30;;;15.40;99.90;;;;;;5541224;25;19996;-49
2024/04/15 00:04:02;;;;;;;10.45;7.70;;;15.40;99.90;;;;;;5547749;25;20008;-45
2024/04/15 00:06:30;;;;;;;8.55;7.32;;;15.40;99.90;;;;;;5547221;25;20449;-48
2024/04/15 00:08:57;;;;;;;11.05;7.13;;;15.30;99.90;;;;;;5549572;25;20007;-47
2024/04/15 00:11:24;;;;;;;9.27;7.85;;;15.20;99.90;;;;;;5543249;25;20020;-44
2024/04/15 00:13:51;;;;;;;9.07;7.00;;;15.20;99.90;;;;;;5542154;25;20414;-45
2024/04/15 00:16:18;;;;;;;11.43;6.68;;;15.20;99.90;;;;;;5552715;25;20012;-47
2024/04/15 00:18:45;;;;;;;8.57;6.85;;;15.10;99.90;;;;;;5541702;25;20033;-45
2024/04/15 00:21:12;;;;;;;13.25;7.40;;;15.00;99.90;;;;;;5548032;25;20004;-50
2024/04/15 00:23:40;;;;;;;11.65;9.00;;;15.10;99.90;;;;;;5534886;25;20001;-51
2024/04/15 00:26:07;;;;;;;9.88;6.88;;;15.10;99.90;;;;;;5531867;25;20066;-47
2024/04/15 00:28:34;;;;;;;8.15;5.78;;;15.10;99.90;;;;;;5515942;25;20008;-45
2024/04/15 00:31:01;;;;;;;9.32;6.38;;;15.10;99.90;;;;;;5543262;25;20124;-44
2024/04/15 00:33:28;;;;;;;7.97;6.13;;;15.10;99.90;;;;;;5527054;25;19998;-49
2024/04/15 00:35:55;;;;;;;7.55;6.53;;;15.10;99.90;;;;;;5549346;25;20005;-47
2024/04/15 00:38:22;;;;;;;9.25;6.32;;;15.00;99.90;;;;;;5540613;25;20037;-43
2024/04/15 00:40:50;;;;;;;7.60;6.10;;;14.90;99.90;;;;;;5547282;25;20004;-47
2024/04/15 00:43:17;;;;;;;8.48;6.22;;;14.90;99.90;;;;;;5545820;25;20556;-44
2024/04/15 00:45:44;;;;;;;8.63;6.22;;;14.90;99.90;;;;;;5549426;25;20004;-48
2024/04/15 00:48:14;;;;;;;7.45;6.60;;;14.90;99.90;;;;;;5534207;25;19997;-52
2024/04/15 00:50:46;;;;;;;7.10;6.28;;;14.80;99.90;;;;;;5529451;25;20504;-46
2024/04/15 00:53:14;;;;;;;13.57;7.18;;;14.80;99.90;;;;;;5512079;25;20005;-48
2024/04/15 00:55:46;;;;;;;8.75;6.82;;;14.70;99.90;;;;;;5549739;25;20087;-53
2024/04/15 00:58:14;;;;;;;7.80;6.30;;;14.60;99.90;;;;;;5544649;25;19997;-45
2024/04/15 01:00:43;;;;;;;9.52;5.88;;;14.60;99.90;;;;;;5546918;25;20076;-50
2024/04/15 01:03:10;;;;;;;6.85;5.72;;;14.50;99.90;;;;;;5541770;25;20264;-47
2024/04/15 01:05:38;;;;;;;10.38;5.93;;;14.40;99.90;;;;;;5541715;25;20005;-47
2024/04/15 01:08:06;;;;;;;8.48;5.63;;;14.40;99.90;;;;;;5513884;25;20076;-49
2024/04/15 01:10:33;;;;;;;13.40;5.68;;;14.30;99.90;;;;;;5543061;25;20073;-49
2024/04/15 01:13:20;;;;;;;9.77;5.40;;;14.20;99.90;;;;;;5530920;25;20089;-50
2024/04/15 01:15:54;;;;;;;9.82;5.80;;;14.20;99.90;;;;;;5549679;25;20012;-46
2024/04/15 01:18:21;;;;;;;7.57;5.68;;;14.20;99.90;;;;;;5526154;25;20012;-49
2024/04/15 01:20:48;;;;;;;11.30;5.95;;;14.10;99.90;;;;;;5550725;25;20005;-50
2024/04/15 01:23:20;;;;;;;7.43;5.60;;;14.00;99.90;;;;;;5535895;25;20001;-45
2024/04/15 01:25:47;;;;;;;8.10;5.55;;;13.80;99.90;;;;;;5537349;25;20033;-47
2024/04/15 01:28:19;;;;;;;9.23;5.57;;;13.70;99.90;;;;;;5551232;25;20001;-49
2024/04/15 01:30:46;;;;;;;7.67;5.90;;;13.60;99.90;;;;;;5544367;25;20004;-48
2024/04/15 01:33:14;;;;;;;7.97;6.05;;;13.50;99.90;;;;;;5550953;25;20886;-48
2024/04/15 01:35:41;;;;;;;7.30;5.53;;;13.40;99.90;;;;;;5538266;25;20339;-47
2024/04/15 01:38:07;;;;;;;8.95;5.15;;;13.30;99.90;;;;;;5540957;25;20019;-45
2024/04/15 01:40:35;;;;;;;7.03;5.10;;;13.30;99.90;;;;;;5544122;25;19996;-49
2024/04/15 01:43:02;;;;;;;9.30;5.57;;;13.30;99.90;;;;;;5548597;25;20004;-49
2024/04/15 01:45:29;;;;;;;9.43;5.55;;;13.20;99.90;;;;;;5549941;25;20008;-53
2024/04/15 01:47:57;;;;;;;7.60;5.15;;;13.30;99.90;;;;;;5531641;25;20001;-45
2024/04/15 01:50:24;;;;;;;7.53;5.07;;;13.40;99.90;;;;;;5539328;25;20001;-48
2024/04/15 01:52:51;;;;;;;7.63;5.80;;;13.30;99.90;;;;;;5542232;25;20011;-47
2024/04/15 01:55:18;;;;;;;9.70;5.53;;;13.40;99.90;;;;;;5536566;25;20474;-47
2024/04/15 01:57:48;;;;;;;8.40;5.20;;;13.40;99.90;;;;;;5500154;25;20370;-47
2024/04/15 02:00:15;;;;;;;6.47;4.90;;;13.40;99.90;;;;;;5539448;25;20005;-50
2024/04/15 02:02:42;;;;;;;7.85;5.05;;;13.50;99.90;;;;;;5534863;25;20011;-48
2024/04/15 02:05:09;;;;;;;9.35;5.18;;;13.50;99.90;;;;;;5525498;25;20016;-50
2024/04/15 02:07:36;;;;;;;8.48;5.15;;;13.50;99.90;;;;;;5535671;25;20001;-47
2024/04/15 02:10:04;;;;;;;11.57;5.38;;;13.50;99.90;;;;;;5524900;25;20419;-47
2024/04/15 02:12:32;;;;;;;9.18;5.28;;;13.50;99.90;;;;;;5534134;25;20009;-48
2024/04/15 02:14:59;;;;;;;8.15;5.10;;;13.50;99.90;;;;;;5543213;25;20004;-45
2024/04/15 02:17:26;;;;;;;8.60;5.20;;;13.60;99.90;;;;;;5535545;25;20015;-48
2024/04/15 02:19:54;;;;;;;8.43;4.93;;;13.50;99.90;;;;;;5542080;25;20411;-54
2024/04/15 02:22:21;;;;;;;8.32;5.05;;;13.60;99.90;;;;;;5528427;25;20021;-47
2024/04/15 02:24:48;;;;;;;6.55;4.63;;;13.60;99.90;;;;;;5548375;25;20101;-49
2024/04/15 02:27:15;;;;;;;8.57;5.32;;;13.60;99.90;;;;;;5533538;25;20025;-48
2024/04/15 02:29:42;;;;;;;9.38;5.55;;;13.70;99.90;;;;;;5533950;25;20020;-49
2024/04/15 02:32:09;;;;;;;10.38;5.57;;;13.80;99.90;;;;;;5535854;25;20015;-48
2024/04/15 02:34:36;;;;;;;12.63;5.82;;;13.80;99.90;;;;;;5525928;25;19998;-52
2024/04/15 02:37:04;;;;;;;8.45;5.07;;;13.80;99.90;;;;;;5531907;25;20012;-48
2024/04/15 02:39:31;;;;;;;8.70;5.82;;;13.80;99.90;;;;;;5535576;25;20010;-49
2024/04/15 02:41:57;;;;;;;7.65;5.60;;;13.80;99.90;;;;;;5540302;25;20002;-44
2024/04/15 02:44:24;;;;;;;10.23;6.50;;;13.80;99.90;;;;;;5527593;25;20001;-46
2024/04/15 02:46:51;;;;;;;9.90;5.53;;;13.90;99.90;;;;;;5533138;25;20024;-46
2024/04/15 02:49:18;;;;;;;8.57;5.72;;;13.80;99.90;;;;;;5537284;25;20005;-44
2024/04/15 02:51:45;;;;;;;11.57;5.93;;;13.90;99.90;;;;;;5547817;25;20015;-44
2024/04/15 02:54:12;;;;;;;10.60;6.13;;;13.80;99.90;;;;;;5548916;25;20020;-51
2024/04/15 02:56:41;;;;;;;10.02;5.93;;;13.80;99.90;;;;;;5531628;25;20462;-48
2024/04/15 02:59:08;;;;;;;7.95;5.75;;;13.80;99.90;;;;;;5542265;25;20001;-46
2024/04/15 03:01:35;;;;;;;9.48;6.05;;;13.80;99.90;;;;;;5528576;25;20017;-49
2024/04/15 03:04:04;;;;;;;12.00;6.10;;;13.70;99.90;;;;;;5525291;25;20072;-44
2024/04/15 03:06:31;;;;;;;9.50;6.10;;;13.70;99.90;;;;;;5544347;25;20277;-44
2024/04/15 03:08:58;;;;;;;9.13;6.10;;;13.70;99.90;;;;;;5529182;25;20001;-45
2024/04/15 03:11:25;;;;;;;8.13;5.75;;;13.70;99.90;;;;;;5500818;25;20426;-46
2024/04/15 03:13:52;;;;;;;7.65;5.40;;;13.60;99.90;;;;;;5530081;25;20076;-50
2024/04/15 03:16:19;;;;;;;10.27;5.90;;;13.50;99.90;;;;;;5524191;25;20046;-45
2024/04/15 03:18:54;;;;;;;10.05;5.55;;;13.60;99.90;;;;;;5531416;25;20001;-47
2024/04/15 03:21:21;;;;;;;9.30;5.57;;;13.40;99.90;;;;;;5526817;25;20411;-45
2024/04/15 03:23:48;;;;;;;13.55;6.32;;;13.30;99.90;;;;;;5536918;25;20057;-49
2024/04/15 03:26:15;;;;;;;18.52;6.32;;;13.20;99.90;;;;;;5535252;25;20354;-48
2024/04/15 03:28:42;;;;;;;9.15;5.82;;;13.10;99.90;;;;;;5536774;25;20030;-45
2024/04/15 03:31:09;;;;;;;11.52;7.22;;;13.00;99.90;;;;;;5528118;25;20005;-47
2024/04/15 03:33:38;;;;;;;10.95;6.25;;;12.90;99.90;;;;;;5541251;25;20013;-48
2024/04/15 03:36:09;;;;;;;9.45;7.00;;;12.90;99.90;;;;;;5537347;25;20001;-47
2024/04/15 03:38:36;;;;;;;8.90;6.40;;;12.80;99.90;;;;;;5543968;25;20005;-49
2024/04/15 03:41:03;;;;;;;7.95;5.75;;;12.80;99.90;;;;;;5535235;25;20117;-44
2024/04/15 03:43:34;;;;;;;11.63;6.40;;;12.80;99.90;;;;;;5530172;25;20035;-46
2024/04/15 03:46:01;;;;;;;8.68;5.85;;;12.80;99.90;;;;;;5505987;25;19993;-49
2024/04/15 03:48:31;;;;;;;7.65;5.07;;;12.70;99.90;;;;;;5539701;25;20001;-48
2024/04/15 03:50:58;;;;;;;9.93;6.20;;;12.70;99.90;;;;;;5542774;25;19996;-48
2024/04/15 03:53:25;;;;;;;10.07;6.30;;;12.60;99.90;;;;;;5535069;25;20284;-50
2024/04/15 03:55:53;;;;;;;9.43;6.43;;;12.60;99.90;;;;;;5534514;25;20021;-48
2024/04/15 03:58:20;;;;;;;11.75;6.10;;;12.70;99.90;;;;;;5533360;25;20033;-49
2024/04/15 04:00:48;;;;;;;10.93;6.55;;;12.60;99.90;;;;;;5533764;25;20506;-47
2024/04/15 04:03:15;;;;;;;10.95;6.60;;;12.60;99.90;;;;;;5532762;25;20001;-50
2024/04/15 04:05:42;;;;;;;10.73;6.80;;;12.60;99.90;;;;;;5534672;25;20054;-50
2024/04/15 04:08:09;;;;;;;11.05;7.13;;;12.60;99.90;;;;;;5539180;25;20029;-50
2024/04/15 04:10:36;;;;;;;10.50;6.45;;;12.50;99.90;;;;;;5497586;25;20552;-46
2024/04/15 04:13:03;;;;;;;10.65;6.70;;;12.50;99.90;;;;;;5533974;25;20045;-51
2024/04/15 04:15:37;;;;;;;10.25;7.13;;;12.40;99.90;;;;;;5542285;25;20001;-52
2024/04/15 04:18:05;;;;;;;11.32;6.95;;;12.40;99.90;;;;;;5524679;25;20009;-46
2024/04/15 04:20:32;;;;;;;13.93;7.50;;;12.40;99.90;;;;;;5536565;25;20085;-46
2024/04/15 04:22:59;;;;;;;11.20;7.43;;;12.40;99.90;;;;;;5540500;25;20349;-46
2024/04/15 04:25:26;;;;;;;11.73;7.20;;;12.30;99.90;;;;;;5550475;25;20004;-45
2024/04/15 04:27:53;;;;;;;9.15;7.00;;;12.30;99.90;;;;;;5537702;25;20000;-47
2024/04/15 04:30:21;;;;;;;12.40;8.07;;;12.20;99.90;;;;;;5529892;25;20016;-49
2024/04/15 04:32:48;;;;;;;10.45;7.53;;;12.20;99.90;;;;;;5534500;25;20001;-49
2024/04/15 04:35:15;;;;;;;13.60;8.20;;;12.20;99.90;;;;;;5537151;25;20401;-48
2024/04/15 04:37:42;;;;;;;12.65;7.78;;;12.20;99.90;;;;;;5542172;25;20076;-49
2024/04/15 04:40:09;;;;;;;10.52;7.55;;;12.10;99.90;;;;;;5540147;25;20026;-48
2024/04/15 04:42:41;;;;;;;10.77;7.65;;;12.10;99.90;;;;;;5532174;25;20620;-50
2024/04/15 04:45:08;;;;;;;11.18;7.80;;;12.10;99.90;;;;;;5529792;25;20307;-48
2024/04/15 04:47:35;;;;;;;15.13;7.68;;;12.00;99.90;;;;;;5535117;25;20029;-44
2024/04/15 04:50:03;;;;;;;11.82;6.80;;;12.10;99.90;;;;;;5545368;25;20016;-48
2024/04/15 04:52:30;;;;;;;12.82;6.90;;;12.10;99.90;;;;;;5532961;25;19998;-48
2024/04/15 04:54:57;;;;;;;11.45;7.40;;;12.20;99.90;;;;;;5533935;25;20024;-46
2024/04/15 04:57:24;;;;;;;9.68;6.68;;;12.20;99.90;;;;;;5543324;25;20419;-44
2024/04/15 04:59:54;;;;;;;11.57;7.20;;;12.20;99.90;;;;;;5526134;25;20267;-48
2024/04/15 05:02:21;;;;;;;11.43;7.47;;;12.20;99.90;;;;;;5543729;25;20450;-51
2024/04/15 05:04:49;;;;;;;10.60;7.50;;;12.10;99.90;;;;;;5542891;25;20005;-47
2024/04/15 05:07:16;;;;;;;12.75;7.53;;;12.20;99.90;;;;;;5520106;25;20001;-46
2024/04/15 05:09:43;;;;;;;12.80;7.40;;;12.10;99.90;;;;;;5547710;25;20004;-50
2024/04/15 05:12:10;;;;;;;10.23;6.85;;;12.10;99.90;;;;;;5552312;25;19997;-47
2024/04/15 05:14:37;;;;;;;9.73;6.80;;;12.10;99.90;;;;;;5545845;25;20357;-49
2024/04/15 05:17:04;;;;;;;12.60;7.55;;;12.10;99.90;;;;;;5550502;25;19996;-46
2024/04/15 05:19:31;;;;;;;10.63;6.95;;;12.20;99.90;;;;;;5539992;25;20017;-49
2024/04/15 05:21:58;;;;;;;9.40;7.20;;;12.20;99.90;;;;;;5552833;25;20000;-48
2024/04/15 05:24:25;;;;;;;13.00;7.22;;;12.20;99.90;;;;;;5553187;25;20004;-48
2024/04/15 05:26:53;;;;;;;11.07;6.63;;;12.20;99.90;;;;;;5541616;25;20025;-45
2024/04/15 05:29:24;;;;;;;9.93;7.45;;;12.30;99.90;;;;;;5545767;25;20358;-51
2024/04/15 05:31:51;;;;;;;13.93;7.22;;;12.30;99.90;;;;;;5528116;25;23455;-46
2024/04/15 05:34:18;;;;;;;11.45;7.57;;;12.30;99.90;;;;;;5549559;25;20379;-47
2024/04/15 05:36:46;;;;;;;12.10;7.15;;;12.30;99.90;;;;;;5544265;25;20014;-46
2024/04/15 05:39:13;;;;;;;11.68;7.22;;;12.30;99.90;;;;;;5539980;25;20062;-47
2024/04/15 05:41:40;;;;;;;11.43;7.13;;;12.30;99.90;;;;;;5546657;25;20222;-54
2024/04/15 05:44:07;;;;;;;8.75;6.82;;;12.30;99.90;;;;;;5544422;25;20499;-42
2024/04/15 05:46:36;;;;;;;11.48;6.88;;;12.40;99.90;;;;;;5552047;25;19997;-47
2024/04/15 05:49:03;;;;;;;11.18;6.95;;;12.30;99.90;;;;;;5534858;25;20001;-46
2024/04/15 05:51:30;;;;;;;9.35;7.63;;;12.40;99.90;;;;;;5548941;25;20016;-47
2024/04/15 05:53:57;;;;;;;11.48;7.15;;;12.50;99.90;;;;;;5550837;25;20005;-46
2024/04/15 05:56:24;;;;;;;11.98;7.00;;;12.50;99.90;;;;;;5540522;25;20013;-50
2024/04/15 05:58:51;;;;;;;10.00;6.43;;;12.50;99.90;;;;;;5531846;25;20008;-48
2024/04/15 06:01:18;;;;;;;12.68;8.30;;;12.50;99.90;;;;;;5549155;25;20012;-49
2024/04/15 06:03:45;;;;;;;10.38;6.88;;;12.50;99.90;;;;;;5545997;25;20000;-47
2024/04/15 06:06:12;;;;;;;10.18;7.35;;;12.50;99.90;;;;;;5545568;25;19996;-50
2024/04/15 06:08:39;;;;;;;9.70;7.22;;;12.60;99.90;;;;;;5506298;25;20008;-47
2024/04/15 06:11:06;;;;;;;8.30;6.55;;;12.50;99.90;;;;;;5548989;25;20397;-48
2024/04/15 06:13:34;;;;;;;9.98;7.30;;;12.50;99.90;;;;;;5537772;25;19996;-47
2024/04/15 06:16:01;;;;;;;13.23;7.32;;;12.50;99.90;;;;;;5545226;25;20050;-47
2024/04/15 06:18:28;;;;;;;10.60;6.80;;;12.40;99.90;;;;;;5528074;25;19997;-47
2024/04/15 06:20:55;;;;;;;8.45;6.57;;;12.60;99.90;;;;;;5537083;25;20016;-47
2024/04/15 06:23:22;;;;;;;9.90;6.53;;;12.80;99.90;;;;;;5537391;25;20012;-48
2024/04/15 06:25:53;;;;;;;8.93;7.18;;;12.90;99.90;;;;;;5523797;25;20000;-51
2024/04/15 06:28:20;;;;;;;12.23;8.35;;;13.10;99.90;;;;;;5541745;25;20012;-46
2024/04/15 06:30:47;;;;;;;10.45;6.55;;;13.30;99.90;;;;;;5539269;25;20044;-44
2024/04/15 06:33:14;;;;;;;8.45;6.68;;;13.40;99.90;;;;;;5540997;25;20017;-51
2024/04/15 06:35:41;;;;;;;10.93;7.57;;;13.30;99.90;;;;;;5541186;25;20007;-50
2024/04/15 06:38:11;;;;;;;12.93;7.50;;;13.30;99.90;;;;;;5536733;25;20001;-47
2024/04/15 06:40:38;;;;;;;9.30;6.85;;;13.30;99.90;;;;;;5536375;25;20000;-49
2024/04/15 06:43:06;;;;;;;9.27;6.00;;;13.30;99.90;;;;;;5543804;25;20019;-49
2024/04/15 06:45:34;;;;;;;10.73;6.78;;;13.30;99.90;;;;;;5539375;25;20041;-48
2024/04/15 06:48:01;;;;;;;11.75;7.03;;;13.20;99.90;;;;;;5529327;25;20044;-47
2024/04/15 06:50:29;;;;;;;12.98;6.85;;;13.20;99.90;;;;;;5539855;25;20001;-45
2024/04/15 06:52:56;;;;;;;9.68;6.78;;;13.20;99.90;;;;;;5540888;25;20120;-47
2024/04/15 06:55:25;;;;;;;10.35;6.90;;;13.20;99.90;;;;;;5544263;25;20065;-51
2024/04/15 06:57:52;;;;;;;10.95;6.93;;;13.20;99.90;;;;;;5539464;25;20252;-45
2024/04/15 07:00:19;;;;;;;8.25;6.10;;;13.20;99.90;;;;;;5537382;25;20001;-44
2024/04/15 07:02:46;;;;;;;8.52;6.55;;;13.30;99.90;;;;;;5539599;25;20358;-49
2024/04/15 07:05:14;;;;;;;12.30;6.97;;;13.20;99.90;;;;;;5545687;25;19997;-50
2024/04/15 07:07:41;;;;;;;9.85;6.72;;;13.40;99.90;;;;;;5540087;25;20009;-45
2024/04/15 07:10:09;;;;;;;8.13;6.32;;;13.30;99.90;;;;;;5548359;25;20348;-46
2024/04/15 07:12:36;;;;;;;9.25;6.60;;;13.40;99.90;;;;;;5551685;25;20025;-49
2024/04/15 07:15:03;;;;;;;11.30;7.28;;;13.40;99.90;;;;;;5553483;25;20019;-51
2024/04/15 07:17:30;;;;;;;10.35;7.13;;;13.40;99.90;;;;;;5544234;25;20047;-46
2024/04/15 07:19:57;;;;;;;11.00;6.95;;;13.40;99.90;;;;;;5548365;25;20520;-49
2024/04/15 07:22:25;;;;;;;11.07;6.45;;;13.40;99.90;;;;;;5546123;25;20001;-44
2024/04/15 07:24:52;;;;;;;9.45;6.55;;;13.40;99.90;;;;;;5550232;25;20027;-48
2024/04/15 07:27:19;;;;;;;10.55;6.82;;;13.40;99.90;;;;;;5539128;25;20577;-46
2024/04/15 07:29:47;;;;;;;10.80;6.38;;;13.30;99.90;;;;;;5532552;25;20001;-50
2024/04/15 07:32:14;;;;;;;11.88;5.97;;;13.40;99.90;;;;;;5502353;25;21286;-48
2024/04/15 07:34:44;;;;;;;10.50;6.72;;;13.50;99.90;;;;;;5542654;25;20047;-50
2024/04/15 07:37:11;;;;;;;10.52;6.68;;;13.50;99.90;;;;;;5526375;25;19997;-49
2024/04/15 07:39:38;;;;;;;8.60;6.60;;;13.60;99.90;;;;;;5530520;25;20016;-46
2024/04/15 07:42:06;;;;;;;11.18;6.93;;;13.50;99.90;;;;;;5538839;25;20132;-51
2024/04/15 07:44:33;;;;;;;9.68;7.20;;;13.40;99.90;;;;;;5529073;25;20079;-50
2024/04/15 07:47:00;;;;;;;12.35;7.05;;;13.40;99.90;;;;;;5542972;25;20180;-46
2024/04/15 07:49:27;;;;;;;10.63;6.68;;;13.40;99.90;;;;;;5540346;25;20339;-48
2024/04/15 07:51:54;;;;;;;11.23;6.68;;;13.50;99.90;;;;;;5535208;25;20405;-49
2024/04/15 07:54:22;;;;;;;11.20;6.65;;;13.60;99.90;;;;;;5522222;25;20458;-50
2024/04/15 07:56:49;;;;;;;11.88;7.07;;;13.70;99.90;;;;;;5532861;25;20001;-44
2024/04/15 07:59:16;;;;;;;6.93;6.10;;;13.70;99.90;;;;;;5535252;25;20021;-51
2024/04/15 08:01:43;;;;;;;8.88;6.47;;;13.70;99.90;;;;;;5523520;25;20077;-44
2024/04/15 08:04:11;;;;;;;9.15;6.25;;;13.50;99.90;;;;;;5548478;25;20085;-48
2024/04/15 08:06:38;;;;;;;9.10;6.20;;;13.40;99.90;;;;;;5539248;25;20015;-48
2024/04/15 08:09:07;;;;;;;10.23;6.15;;;13.30;99.90;;;;;;5539104;25;20016;-47
2024/04/15 08:11:34;;;;;;;8.82;6.28;;;13.40;99.90;;;;;;5529297;25;19997;-46
2024/04/15 08:14:02;;;;;;;8.07;6.45;;;13.40;99.90;;;;;;5531272;25;20012;-49
2024/04/15 08:16:30;;;;;;;9.43;6.43;;;13.40;99.90;;;;;;5535431;25;20357;-51
2024/04/15 08:18:57;;;;;;;11.15;5.97;;;13.50;99.90;;;;;;5534250;25;20010;-45
2024/04/15 08:21:24;;;;;;;11.30;6.63;;;13.50;99.90;;;;;;5536756;25;19996;-47
2024/04/15 08:23:51;;;;;;;9.00;6.68;;;13.60;99.90;;;;;;5541299;25;20029;-50
2024/04/15 08:26:19;;;;;;;11.77;7.07;;;13.60;99.90;;;;;;5532539;25;19996;-49
2024/04/15 08:28:47;;;;;;;7.40;6.60;;;13.70;99.90;;;;;;5526935;25;20029;-49
2024/04/15 08:31:14;;;;;;;9.57;6.53;;;13.80;99.90;;;;;;5532186;25;20438;-48
2024/04/15 08:33:41;;;;;;;9.60;6.28;;;13.90;99.90;;;;;;5540070;25;19997;-48
2024/04/15 08:36:08;;;;;;;12.63;7.03;;;14.00;99.90;;;;;;5528393;25;20006;-51
2024/04/15 08:38:37;;;;;;;9.70;6.40;;;14.10;99.90;;;;;;5528274;25;20001;-45
2024/04/15 08:41:06;;;;;;;12.20;6.68;;;14.20;99.90;;;;;;5533522;25;20008;-47
2024/04/15 08:43:33;;;;;;;9.48;6.70;;;14.10;99.90;;;;;;5520374;25;20052;-48
2024/04/15 08:46:02;;;;;;;8.82;7.38;;;14.20;99.90;;;;;;5499282;25;20016;-47
2024/04/15 08:48:32;;;;;;;9.23;7.22;;;14.30;99.90;;;;;;5527682;25;20351;-44
2024/04/15 08:51:02;;;;;;;11.15;7.90;;;14.40;99.90;;;;;;5542451;25;19993;-48
2024/04/15 08:53:30;;;;;;;11.52;7.10;;;14.30;99.90;;;;;;5538197;25;19997;-48
2024/04/15 08:55:57;;;;;;;9.27;6.75;;;14.40;99.90;;;;;;5527584;25;20021;-45
2024/04/15 08:58:25;;;;;;;10.85;6.57;;;14.40;99.90;;;;;;5530650;25;20334;-51
2024/04/15 09:00:53;;;;;;;9.35;7.25;;;14.20;99.90;;;;;;5535001;25;20009;-49
2024/04/15 09:03:23;;;;;;;8.07;6.65;;;14.30;99.90;;;;;;5524790;25;20017;-46
2024/04/15 09:05:50;;;;;;;12.30;7.60;;;14.30;99.90;;;;;;5531416;25;20081;-50
2024/04/15 09:08:17;;;;;;;9.13;7.22;;;14.60;99.90;;;;;;5533780;25;20025;-45
2024/04/15 09:10:44;;;;;;;7.93;6.80;;;15.10;99.90;;;;;;5536202;25;19997;-48
2024/04/15 09:13:11;;;;;;;10.60;7.03;;;15.30;99.90;;;;;;5529364;25;20005;-49
2024/04/15 09:15:39;;;;;;;11.38;6.47;;;14.80;99.90;;;;;;5535711;25;20038;-51
2024/04/15 09:18:08;;;;;;;8.57;6.38;;;14.80;99.90;;;;;;5535006;25;20069;-45
2024/04/15 09:20:36;;;;;;;8.25;6.22;;;14.80;99.90;;;;;;5537115;25;20005;-48
2024/04/15 09:23:20;;;;;;;8.00;5.80;;;14.90;99.90;;;;;;5531309;25;20002;-47
2024/04/15 09:25:47;;;;;;;10.50;6.03;;;15.30;99.90;;;;;;5542147;25;20256;-49
2024/04/15 09:28:14;;;;;;;10.32;6.78;;;15.10;99.90;;;;;;5541811;25;20023;-46
2024/04/15 09:30:41;;;;;;;7.93;6.70;;;14.80;99.90;;;;;;5539018;25;20032;-46
2024/04/15 09:33:11;;;;;;;9.00;6.95;;;14.90;99.90;;;;;;5532904;25;20049;-47
2024/04/15 09:35:39;;;;;;;10.93;7.10;;;15.10;99.90;;;;;;5541901;25;19997;-52
2024/04/15 09:38:12;;;;;;;11.55;7.53;;;15.70;99.90;;;;;;5561590;25;20004;-44
2024/04/15 09:40:43;;;;;;;10.90;7.53;;;16.00;99.90;;;;;;5549311;25;20001;-44
2024/04/15 09:43:11;;;;;;;9.88;7.55;;;16.00;99.90;;;;;;5537964;25;20457;-47
2024/04/15 09:45:38;;;;;;;9.65;7.07;;;15.80;99.90;;;;;;5538136;25;20070;-43
2024/04/15 09:48:14;;;;;;;9.20;7.15;;;15.60;99.90;;;;;;5538388;25;20001;-45
2024/04/15 09:50:46;;;;;;;12.52;6.85;;;15.30;99.90;;;;;;5508554;25;20452;-49
2024/04/15 09:53:22;;;;;;;10.25;7.75;;;14.90;99.90;;;;;;5529248;25;20679;-47
2024/04/15 09:55:51;;;;;;;14.35;7.63;;;14.80;99.90;;;;;;5536811;25;20001;-48
2024/04/15 09:58:20;;;;;;;12.27;8.23;;;14.70;99.90;;;;;;5539000;25;19996;-48
2024/04/15 10:00:51;;;;;;;11.40;8.25;;;14.50;99.90;;;;;;5531260;25;20473;-49
2024/04/15 10:03:21;;;;;;;13.10;8.60;;;14.60;99.90;;;;;;5534033;25;20014;-48
2024/04/15 10:05:52;;;;;;;9.75;7.63;;;14.70;99.90;;;;;;5534794;25;20024;-46
2024/04/15 10:08:19;;;;;;;10.27;7.20;;;15.00;99.90;;;;;;5534420;25;20005;-48
2024/04/15 10:10:47;;;;;;;9.18;7.38;;;15.20;99.90;;;;;;5528423;25;20001;-49
2024/04/15 10:13:15;;;;;;;14.65;7.78;;;15.60;99.90;;;;;;5538818;25;20039;-49
2024/04/15 10:15:42;;;;;;;11.50;7.63;;;15.60;99.90;;;;;;5541403;25;20018;-50
2024/04/15 10:18:14;;;;;;;11.98;7.88;;;15.90;99.90;;;;;;5536175;25;20470;-47
2024/04/15 10:20:45;;;;;;;9.88;7.07;;;16.30;99.90;;;;;;5544437;25;20016;-48
2024/04/15 10:23:19;;;;;;;13.32;7.82;;;16.80;99.90;;;;;;5530260;25;20001;-48
2024/04/15 10:25:49;;;;;;;9.07;6.85;;;16.80;99.90;;;;;;5536623;25;20116;-46
2024/04/15 10:28:16;;;;;;;13.15;8.38;;;16.50;99.90;;;;;;5526022;25;20013;-45
2024/04/15 10:30:48;;;;;;;9.68;7.28;;;16.10;99.90;;;;;;5530207;25;20541;-49
2024/04/15 10:33:15;;;;;;;8.73;6.72;;;16.60;99.90;;;;;;5537526;25;20011;-47
2024/04/15 10:35:46;;;;;;;9.02;6.82;;;16.90;99.90;;;;;;5529308;25;19993;-50
2024/04/15 10:38:14;;;;;;;8.40;6.00;;;17.30;99.90;;;;;;5517206;25;19994;-47
2024/04/15 10:40:46;;;;;;;8.68;6.60;;;17.40;99.90;;;;;;5521152;25;20524;-48
2024/04/15 10:43:16;;;;;;;9.88;6.88;;;17.60;99.90;;;;;;5533849;25;20016;-45
2024/04/15 10:45:47;;;;;;;9.57;6.30;;;17.70;99.90;;;;;;5528325;25;20016;-48
2024/04/15 10:48:14;;;;;;;12.57;7.97;;;17.40;99.90;;;;;;5539837;25;21475;-49
2024/04/15 10:50:42;;;;;;;13.77;7.30;;;17.70;99.90;;;;;;5539505;25;20006;-49
2024/04/15 10:53:10;;;;;;;10.07;7.18;;;17.70;99.90;;;;;;5543232;25;20017;-50
2024/04/15 10:55:37;;;;;;;8.02;6.53;;;17.80;99.90;;;;;;5535767;25;20004;-47
2024/04/15 10:58:11;;;;;;;9.77;6.90;;;17.60;99.90;;;;;;5539247;25;20473;-50
2024/04/15 11:00:43;;;;;;;10.75;6.93;;;17.60;99.90;;;;;;5548048;25;20013;-48
2024/04/15 11:03:11;;;;;;;10.13;6.45;;;17.60;99.90;;;;;;5536444;25;19997;-50
2024/04/15 11:05:38;;;;;;;8.15;6.50;;;17.30;99.90;;;;;;5531463;25;20292;-49
2024/04/15 11:08:08;;;;;;;9.82;7.60;;;17.00;99.90;;;;;;5545445;25;20012;-50
2024/04/15 11:10:36;;;;;;;7.80;6.78;;;17.00;99.90;;;;;;5535873;25;20057;-51
2024/04/15 11:13:04;;;;;;;9.77;6.35;;;16.70;99.90;;;;;;5537813;25;20074;-48
2024/04/15 11:15:31;;;;;;;8.07;6.50;;;16.90;99.90;;;;;;5544314;25;20290;-52
2024/04/15 11:17:58;;;;;;;13.20;6.78;;;17.10;99.90;;;;;;5531868;25;20008;-51
2024/04/15 11:20:25;;;;;;;10.70;6.82;;;17.20;99.90;;;;;;5545370;25;19997;-50
2024/04/15 11:22:53;;;;;;;9.75;6.25;;;17.10;99.90;;;;;;5532039;25;20001;-46
2024/04/15 11:25:20;;;;;;;8.55;6.78;;;17.30;99.90;;;;;;5544849;25;20044;-50
2024/04/15 11:27:50;;;;;;;8.27;6.40;;;17.20;99.90;;;;;;5549778;25;20502;-44
2024/04/15 11:30:25;;;;;;;10.95;7.28;;;16.90;99.90;;;;;;5532348;25;20045;-46
2024/04/15 11:32:52;;;;;;;9.85;6.53;;;17.00;99.90;;;;;;5520244;25;20011;-48
2024/04/15 11:35:20;;;;;;;9.25;6.93;;;17.00;99.90;;;;;;5538815;25;19993;-47
2024/04/15 11:38:03;;;;;;;8.43;6.90;;;17.10;99.90;;;;;;5527768;25;20414;-48
2024/04/15 11:40:31;;;;;;;8.93;6.85;;;17.10;99.90;;;;;;5532672;25;20005;-50
2024/04/15 11:42:58;;;;;;;7.85;6.22;;;18.00;99.90;;;;;;5543845;25;20019;-49
2024/04/15 11:45:25;;;;;;;10.45;6.47;;;18.80;99.90;;;;;;5531935;25;20414;-49
2024/04/15 11:47:53;;;;;;;9.23;5.82;;;18.60;99.90;;;;;;5546857;25;20001;-50
2024/04/15 11:50:21;;;;;;;13.60;6.72;;;18.30;99.90;;;;;;5523743;25;20596;-49
2024/04/15 11:52:48;;;;;;;9.90;5.80;;;18.00;99.90;;;;;;5533250;25;20408;-51
2024/04/15 11:55:16;;;;;;;10.73;6.53;;;17.90;99.90;;;;;;5539023;25;20008;-49
2024/04/15 11:57:47;;;;;;;8.55;6.45;;;17.90;99.90;;;;;;5546766;25;20080;-47
2024/04/15 12:00:15;;;;;;;9.38;6.32;;;17.20;99.90;;;;;;5528041;25;20441;-49
2024/04/15 12:02:44;;;;;;;7.78;5.90;;;17.00;99.90;;;;;;5535547;25;20517;-44
2024/04/15 12:05:15;;;;;;;12.45;6.32;;;16.80;99.90;;;;;;5538697;25;20029;-47
2024/04/15 12:07:43;;;;;;;9.35;5.40;;;17.10;99.90;;;;;;5542663;25;20069;-48
2024/04/15 12:10:11;;;;;;;8.75;5.65;;;17.60;99.90;;;;;;5534890;25;20055;-45
2024/04/15 12:12:38;;;;;;;9.15;6.18;;;18.10;99.90;;;;;;5527953;25;20485;-48
2024/04/15 12:15:06;;;;;;;8.85;5.82;;;18.60;99.90;;;;;;5522417;25;20017;-54
2024/04/15 12:17:35;;;;;;;8.90;5.78;;;18.60;99.90;;;;;;5537675;25;20108;-46
2024/04/15 12:20:04;;;;;;;8.30;5.50;;;18.20;99.90;;;;;;5537021;25;19993;-46
2024/04/15 12:22:31;;;;;;;7.43;5.50;;;18.30;99.90;;;;;;5546534;25;20326;-51
2024/04/15 12:24:59;;;;;;;8.68;5.55;;;18.20;99.90;;;;;;5528317;25;20015;-46
2024/04/15 12:27:36;;;;;;;8.75;5.57;;;18.30;99.90;;;;;;5542096;25;20015;-49
2024/04/15 12:30:08;;;;;;;6.57;5.18;;;18.00;99.90;;;;;;5524455;25;20005;-50
2024/04/15 12:32:38;;;;;;;6.78;5.68;;;17.80;99.90;;;;;;5536496;25;20596;-47
2024/04/15 12:35:06;;;;;;;8.68;4.75;;;17.80;99.90;;;;;;5535169;25;19997;-48
2024/04/15 12:37:34;;;;;;;8.43;4.63;;;18.60;99.90;;;;;;5551670;25;20028;-46
2024/04/15 12:40:05;;;;;;;6.10;4.35;;;19.00;99.90;;;;;;5531863;25;20005;-48
2024/04/15 12:42:32;;;;;;;8.18;4.82;;;20.00;99.90;;;;;;5530307;25;20005;-54
2024/04/15 12:44:59;;;;;;;7.38;5.10;;;20.20;99.90;;;;;;5523059;25;20446;-45
2024/04/15 12:47:26;;;;;;;11.07;5.00;;;20.80;99.90;;;;;;5539214;25;20122;-48